Time;durP1;ratioP1;P1;durP2;ratioP2;P2;SDS_P1;SDS_P2;PMS_P1;PMS_P2;Temp;Humidity;BMP_temperature;BMP_pressure;BME280_temperature;BME280_humidity;BME280_pressure;Samples;Min_cycle;Max_cycle;Signal;HPM_P1;HPM_P2
2021/04/19 00:00:23;;;;;;;12.07;9.20;;;7.10;99.90;;;6.57;81.92;101826.50;4165779;28;20448;-66
2021/04/19 00:02:24;;;;;;;11.38;9.45;;;6.90;99.90;;;6.61;81.70;101817.50;4168480;28;20053;-66
2021/04/19 00:04:25;;;;;;;12.60;8.73;;;6.80;99.90;;;6.74;81.02;101821.91;4158761;28;20022;-67
2021/04/19 00:06:26;;;;;;;14.85;9.50;;;6.90;99.90;;;6.60;81.68;101810.56;4169329;28;20024;-66
2021/04/19 00:08:27;;;;;;;11.60;9.35;;;6.80;99.90;;;6.51;82.32;101805.13;4167995;28;20036;-67
2021/04/19 00:10:29;;;;;;;13.77;9.05;;;6.80;99.90;;;6.52;81.88;101812.88;4156421;28;20120;-67
2021/04/19 00:12:30;;;;;;;12.93;10.07;;;6.80;99.90;;;6.50;82.46;101813.94;4151174;28;20038;-66
2021/04/19 00:14:31;;;;;;;12.52;8.93;;;6.70;99.90;;;6.26;82.81;101794.63;4161554;28;20566;-66
2021/04/19 00:16:32;;;;;;;13.35;9.52;;;6.60;99.90;;;6.31;82.92;101803.84;4166094;28;20116;-67
2021/04/19 00:18:33;;;;;;;10.43;9.15;;;6.60;99.90;;;6.24;82.85;101807.00;4169333;28;20032;-66
2021/04/19 00:20:34;;;;;;;14.30;9.73;;;6.60;99.90;;;6.16;82.68;101797.00;4169302;28;20473;-67
2021/04/19 00:22:36;;;;;;;14.45;9.82;;;6.50;99.90;;;6.22;82.85;101801.84;4167840;28;20041;-67
2021/04/19 00:24:37;;;;;;;14.18;9.38;;;6.50;99.90;;;6.06;83.28;101790.72;4167956;28;20474;-67
2021/04/19 00:26:37;;;;;;;14.15;10.18;;;6.40;99.90;;;6.13;83.31;101799.81;4169192;28;20052;-67
2021/04/19 00:28:38;;;;;;;14.38;9.77;;;6.40;99.90;;;6.23;82.91;101800.06;4169130;28;20029;-66
2021/04/19 00:30:39;;;;;;;16.25;10.02;;;6.40;99.90;;;6.16;82.83;101806.63;4151532;28;20026;-67
2021/04/19 00:32:40;;;;;;;13.65;8.85;;;6.40;99.90;;;6.09;83.03;101799.19;4167623;28;20036;-68
2021/04/19 00:34:41;;;;;;;12.40;9.55;;;6.30;99.90;;;6.06;82.87;101803.81;4167760;28;20155;-68
2021/04/19 00:36:42;;;;;;;13.48;9.93;;;6.20;99.90;;;5.91;83.63;101794.34;4184137;28;20061;-67
2021/04/19 00:38:43;;;;;;;15.10;10.38;;;6.30;99.90;;;5.95;83.52;101786.16;4167715;28;20525;-67
2021/04/19 00:40:45;;;;;;;13.27;10.10;;;6.10;99.90;;;5.93;84.02;101788.06;4169158;28;20028;-67
2021/04/19 00:42:49;;;;;;;14.63;10.15;;;6.20;99.90;;;5.84;84.74;101795.63;4167575;28;20116;-67
2021/04/19 00:44:51;;;;;;;13.65;9.45;;;6.20;99.90;;;5.86;84.11;101788.53;4167777;28;20067;-67
2021/04/19 00:46:52;;;;;;;11.38;9.48;;;6.10;99.90;;;5.84;84.31;101775.53;4167679;28;20049;-67
2021/04/19 00:48:53;;;;;;;12.23;9.50;;;6.20;99.90;;;5.94;84.12;101783.66;4167672;28;20029;-67
2021/04/19 00:50:55;;;;;;;12.85;9.30;;;6.10;99.90;;;5.85;84.28;101785.13;4150891;28;20072;-67
2021/04/19 00:52:57;;;;;;;12.50;9.90;;;6.10;99.90;;;5.83;84.45;101786.94;4167718;28;20115;-67
2021/04/19 00:54:59;;;;;;;12.30;9.32;;;6.10;99.90;;;5.85;84.59;101781.63;4167610;28;20025;-67
2021/04/19 00:57:00;;;;;;;11.48;10.10;;;6.10;99.90;;;5.84;84.21;101779.94;4167353;28;20029;-67
2021/04/19 00:59:01;;;;;;;13.23;9.68;;;6.00;99.90;;;5.81;83.45;101777.50;4155400;28;20038;-67
2021/04/19 01:01:04;;;;;;;12.88;9.13;;;6.00;99.90;;;5.90;83.57;101776.94;4167625;28;20025;-67
2021/04/19 01:03:06;;;;;;;12.50;9.55;;;6.10;99.90;;;5.83;84.03;101784.31;4168736;28;20025;-67
2021/04/19 01:05:21;;;;;;;11.95;9.65;;;6.00;99.90;;;5.75;84.40;101776.13;4167474;28;20088;-67
2021/04/19 01:07:22;;;;;;;11.40;9.15;;;6.00;99.90;;;5.61;85.04;101760.50;4168394;28;20551;-67
2021/04/19 01:09:23;;;;;;;13.60;10.13;;;6.00;99.90;;;5.91;84.51;101781.25;4168579;28;20080;-67
2021/04/19 01:11:24;;;;;;;14.18;9.93;;;6.00;99.90;;;5.76;85.30;101767.34;4167325;28;20018;-67
2021/04/19 01:13:25;;;;;;;14.40;10.57;;;6.00;99.90;;;5.66;86.19;101760.19;4183743;28;20028;-67
2021/04/19 01:15:26;;;;;;;14.15;10.35;;;6.00;99.90;;;5.67;86.48;101761.88;4151012;28;20124;-66
2021/04/19 01:17:27;;;;;;;15.20;11.23;;;6.00;99.90;;;5.79;86.49;101766.31;4159817;28;20026;-67
2021/04/19 01:19:28;;;;;;;14.50;9.88;;;6.00;99.90;;;5.86;85.78;101764.97;4167395;28;20446;-67
2021/04/19 01:21:29;;;;;;;14.35;9.98;;;6.00;99.90;;;5.85;86.13;101752.81;4166000;28;20033;-67
2021/04/19 01:23:30;;;;;;;15.52;10.27;;;6.00;99.90;;;5.79;86.55;101758.44;4150950;28;20018;-67
2021/04/19 01:25:32;;;;;;;12.68;10.73;;;6.00;99.90;;;5.78;86.58;101757.59;4174596;28;20040;-67
2021/04/19 01:27:34;;;;;;;14.20;10.38;;;6.10;99.90;;;5.94;85.64;101749.63;4167224;28;20093;-67
2021/04/19 01:29:35;;;;;;;15.93;10.10;;;6.00;99.90;;;5.93;86.14;101750.56;4164785;28;20034;-67
2021/04/19 01:31:35;;;;;;;15.48;10.35;;;6.10;99.90;;;5.80;86.59;101747.88;4167361;28;20024;-67
2021/04/19 01:33:36;;;;;;;14.50;10.27;;;6.10;99.90;;;5.69;86.71;101746.88;4183398;28;20049;-67
2021/04/19 01:35:37;;;;;;;14.68;10.48;;;6.00;99.90;;;5.76;86.13;101748.19;4167253;28;20044;-67
2021/04/19 01:37:39;;;;;;;12.73;10.02;;;6.00;99.90;;;5.68;86.54;101748.66;4166725;28;20440;-67
2021/04/19 01:39:40;;;;;;;12.00;9.20;;;6.00;99.90;;;5.66;86.31;101739.25;4167343;28;20197;-67
2021/04/19 01:41:41;;;;;;;11.90;8.95;;;6.00;99.90;;;5.67;86.02;101748.78;4168375;28;20373;-66
2021/04/19 01:43:42;;;;;;;12.88;9.85;;;5.90;99.90;;;5.65;84.94;101740.16;4167102;28;20033;-67
2021/04/19 01:45:43;;;;;;;11.80;9.15;;;5.90;99.90;;;5.64;85.08;101730.66;4168170;28;20037;-67
2021/04/19 01:47:45;;;;;;;12.32;9.98;;;5.90;99.90;;;5.67;85.26;101735.69;4167184;28;20105;-67
2021/04/19 01:49:46;;;;;;;12.55;9.63;;;5.90;99.90;;;5.66;85.51;101732.22;4167087;28;20521;-66
2021/04/19 01:51:47;;;;;;;12.70;10.15;;;5.90;99.90;;;5.71;85.75;101738.00;4166858;28;20040;-67
2021/04/19 01:53:48;;;;;;;13.90;10.50;;;5.90;99.90;;;5.72;85.80;101742.31;4183537;28;20083;-67
2021/04/19 01:55:49;;;;;;;12.73;10.13;;;5.90;99.90;;;5.55;86.23;101724.25;4168198;28;20042;-67
2021/04/19 01:58:04;;;;;;;15.55;11.27;;;5.90;99.90;;;5.57;86.33;101728.44;4167033;28;20034;-67
2021/04/19 02:00:07;;;;;;;;;;;5.90;99.90;;;5.84;85.65;101727.56;4168639;28;20026;-67
2021/04/19 02:02:31;;;;;;;17.70;10.88;;;6.00;99.90;;;5.73;85.39;101711.72;4183350;28;19999;-67
2021/04/19 02:05:02;;;;;;;13.55;10.30;;;6.00;99.90;;;5.54;85.91;101723.41;4167010;28;20072;-67
2021/04/19 02:07:41;;;;;;;16.33;11.40;;;5.90;99.90;;;5.59;86.74;101717.84;4167840;28;20033;-67
2021/04/19 02:10:30;;;;;;;13.50;10.90;;;5.90;99.90;;;5.41;87.07;101719.91;4164718;28;20033;-67
2021/04/19 02:13:02;;;;;;;14.85;10.57;;;5.90;99.90;;;5.51;86.88;101718.38;4142550;28;20041;-67
2021/04/19 02:15:15;;;;;;;11.27;9.13;;;5.80;99.90;;;5.48;86.05;101726.41;4151849;28;20128;-67
2021/04/19 02:17:35;;;;;;;11.48;9.10;;;5.80;99.90;;;5.48;85.06;101722.97;4166743;28;20416;-67
2021/04/19 02:19:50;;;;;;;11.75;9.45;;;5.70;99.90;;;5.39;84.84;101726.16;4167034;28;20037;-67
2021/04/19 02:21:54;;;;;;;;;;;5.70;99.90;;;5.36;85.19;101718.53;4168221;28;20044;-67
2021/04/19 02:24:04;;;;;;;12.70;10.00;;;5.70;99.90;;;5.38;86.26;101720.09;4166709;28;19915;-67
2021/04/19 02:26:23;;;;;;;10.68;8.60;;;5.70;99.90;;;5.39;85.70;101729.63;4166779;28;20533;-67
2021/04/19 02:28:35;;;;;;;12.70;9.82;;;5.60;99.90;;;5.41;85.80;101724.28;4166973;28;20420;-67
2021/04/19 02:30:41;;;;;;;12.80;10.35;;;5.60;99.90;;;5.30;85.33;101719.75;4166816;28;20026;-67
2021/04/19 02:32:51;;;;;;;14.73;11.48;;;5.70;99.90;;;5.36;85.73;101727.22;4167731;28;20021;-67
2021/04/19 02:34:56;;;;;;;13.48;9.80;;;5.60;99.90;;;5.31;86.35;101721.44;4167610;28;20022;-67
2021/04/19 02:37:01;;;;;;;15.80;10.27;;;5.60;99.90;;;5.25;86.78;101721.84;4170711;28;20052;-67
2021/04/19 02:39:04;;;;;;;16.45;10.35;;;5.60;99.90;;;5.22;86.53;101716.81;4169767;28;20101;-67
2021/04/19 02:41:11;;;;;;;15.87;10.57;;;5.60;99.90;;;4.96;87.20;101712.34;4169583;28;20033;-67
2021/04/19 02:43:14;;;;;;;17.17;11.63;;;5.50;99.90;;;5.07;87.09;101724.78;4169711;28;20033;-67
2021/04/19 02:45:16;;;;;;;16.65;11.55;;;5.40;99.90;;;5.14;87.68;101729.50;4153037;28;20089;-67
2021/04/19 02:47:22;;;;;;;16.27;11.70;;;5.30;99.90;;;5.36;86.78;101729.81;4169622;28;20147;-67
2021/04/19 02:49:30;;;;;;;13.43;9.70;;;5.50;99.90;;;5.22;87.16;101729.88;4169686;28;20113;-67
2021/04/19 02:51:32;;;;;;;18.38;11.77;;;5.50;99.90;;;5.13;87.30;101721.75;4169310;28;20052;-67
2021/04/19 02:53:36;;;;;;;14.90;11.25;;;5.50;99.90;;;5.07;87.89;101717.78;4169474;28;20025;-67
2021/04/19 02:55:39;;;;;;;16.45;12.40;;;5.50;99.90;;;5.19;87.09;101727.47;4152996;28;20036;-67
2021/04/19 02:58:02;;;;;;;16.88;12.43;;;5.40;99.90;;;5.37;86.74;101720.22;4152705;28;20088;-67
2021/04/19 03:00:05;;;;;;;17.30;12.70;;;5.50;99.90;;;5.42;87.25;101718.13;4159144;28;20088;-66
2021/04/19 03:02:08;;;;;;;18.00;11.88;;;5.60;99.90;;;5.37;87.33;101723.66;4169311;28;20592;-66
2021/04/19 03:04:20;;;;;;;14.55;11.40;;;5.60;99.90;;;5.16;87.57;101719.81;4169594;28;20497;-67
2021/04/19 03:06:24;;;;;;;16.92;12.25;;;5.60;99.90;;;5.15;88.29;101719.88;4168796;28;20108;-67
2021/04/19 03:08:31;;;;;;;15.35;10.80;;;5.50;99.90;;;4.96;88.51;101715.81;4166109;28;20033;-66
2021/04/19 03:10:36;;;;;;;20.35;12.23;;;5.40;99.90;;;4.91;89.38;101707.44;4152801;28;20034;-66
2021/04/19 03:12:41;;;;;;;14.43;11.50;;;5.40;99.90;;;4.86;89.13;101704.28;4160951;28;20033;-66
2021/04/19 03:15:01;;;;;;;14.43;11.68;;;5.40;99.90;;;5.06;88.12;101716.09;4169277;28;20443;-66
2021/04/19 03:17:07;;;;;;;15.70;11.02;;;5.40;99.90;;;5.17;86.94;101711.00;4169350;28;20030;-67
2021/04/19 03:19:11;;;;;;;13.38;10.45;;;5.40;99.90;;;5.08;87.56;101706.34;4169205;28;20413;-66
2021/04/19 03:21:23;;;;;;;15.18;12.05;;;5.30;99.90;;;5.10;87.97;101701.03;4168961;28;20116;-67
2021/04/19 03:23:24;;;;;;;16.55;11.63;;;5.30;99.90;;;5.06;88.23;101704.78;4152696;28;20033;-67
2021/04/19 03:25:29;;;;;;;15.80;11.20;;;5.30;99.90;;;5.10;87.71;101701.03;4170273;28;20032;-67
2021/04/19 03:27:32;;;;;;;14.13;11.10;;;5.30;99.90;;;5.01;87.41;101710.31;4169058;28;20195;-67
2021/04/19 03:29:35;;;;;;;14.07;10.35;;;5.30;99.90;;;5.02;86.77;101706.75;4168926;28;20531;-67
2021/04/19 03:31:51;;;;;;;14.52;10.02;;;5.30;99.90;;;5.07;85.15;101703.84;4169078;28;20026;-67
2021/04/19 03:33:55;;;;;;;15.35;10.52;;;5.20;99.90;;;5.01;85.24;101708.53;4153632;28;20042;-67
2021/04/19 03:35:57;;;;;;;;;;;5.20;99.90;;;4.97;84.87;101708.81;4169108;28;20053;-66
2021/04/19 03:38:00;;;;;;;14.82;10.13;;;5.20;99.90;;;4.98;85.04;101711.34;4169004;28;19935;-66
2021/04/19 03:40:33;;;;;;;16.13;9.90;;;5.20;99.90;;;4.99;85.23;101702.56;4152513;28;20101;-67
2021/04/19 03:42:36;;;;;;;13.15;10.27;;;5.20;99.90;;;4.98;86.36;101700.03;4169928;28;20104;-67
2021/04/19 03:44:40;;;;;;;13.85;10.70;;;5.20;99.90;;;5.00;86.23;101706.00;4168893;28;20026;-67
2021/04/19 03:46:42;;;;;;;15.68;11.18;;;5.20;99.90;;;4.88;86.17;101698.94;4167708;28;20065;-66
2021/04/19 03:48:45;;;;;;;11.70;10.38;;;5.20;99.90;;;4.91;87.10;101701.34;4168841;28;20033;-67
2021/04/19 03:51:07;;;;;;;16.60;10.57;;;5.20;99.90;;;4.93;86.66;101694.25;4168332;28;20065;-67
2021/04/19 03:53:09;;;;;;;13.45;9.25;;;5.20;99.90;;;4.85;86.85;101691.28;4168496;28;20116;-67
2021/04/19 03:55:13;;;;;;;18.80;11.15;;;5.20;99.90;;;4.87;86.53;101685.03;4168665;28;20458;-66
2021/04/19 03:57:19;;;;;;;13.43;10.15;;;5.20;99.90;;;4.94;85.91;101693.31;4168434;28;20053;-67
2021/04/19 03:59:22;;;;;;;15.82;10.57;;;5.20;99.90;;;4.93;85.71;101699.47;4168563;28;20275;-67
2021/04/19 04:01:23;;;;;;;14.65;10.70;;;5.10;99.90;;;4.94;85.11;101682.88;4168233;28;20057;-67
2021/04/19 04:03:25;;;;;;;11.40;10.20;;;5.20;99.90;;;4.96;83.92;101689.66;4164221;28;20025;-67
2021/04/19 04:05:27;;;;;;;14.73;9.63;;;5.10;99.90;;;4.90;83.45;101681.38;4168304;28;20029;-66
2021/04/19 04:07:31;;;;;;;13.00;9.82;;;5.20;99.90;;;4.88;83.43;101680.63;4168252;28;20144;-67
2021/04/19 04:09:32;;;;;;;12.80;10.23;;;5.10;99.90;;;4.89;83.36;101679.72;4168330;28;20084;-66
2021/04/19 04:11:35;;;;;;;15.55;9.25;;;5.10;99.90;;;4.89;83.02;101677.09;4164524;28;20088;-67
2021/04/19 04:13:36;;;;;;;13.77;9.88;;;5.10;99.90;;;4.88;83.51;101670.19;4168227;28;20037;-67
2021/04/19 04:15:54;;;;;;;12.00;10.20;;;5.10;99.90;;;4.80;83.75;101662.84;4168401;28;20068;-66
2021/04/19 04:17:55;;;;;;;12.60;10.88;;;5.10;99.90;;;4.80;84.44;101662.84;4168247;28;20033;-67
2021/04/19 04:19:56;;;;;;;14.48;10.77;;;5.00;99.90;;;4.71;84.41;101652.97;4168197;28;20026;-67
2021/04/19 04:21:57;;;;;;;15.57;10.77;;;5.00;99.90;;;4.95;83.69;101668.88;4169096;28;20025;-67
2021/04/19 04:23:59;;;;;;;12.68;9.80;;;5.00;99.90;;;4.86;82.94;101672.91;4169382;28;20032;-67
2021/04/19 04:26:00;;;;;;;13.35;10.45;;;5.10;99.90;;;4.72;83.59;101667.69;4168246;28;20374;-67
2021/04/19 04:28:04;;;;;;;14.55;9.43;;;5.00;99.90;;;4.73;83.03;101673.75;4169223;28;20041;-67
2021/04/19 04:30:06;;;;;;;11.98;10.23;;;4.90;99.90;;;4.63;83.61;101675.28;4169342;28;20108;-67
2021/04/19 04:32:08;;;;;;;13.10;10.15;;;4.90;99.90;;;4.69;83.71;101667.88;4169298;28;20041;-67
2021/04/19 04:34:08;;;;;;;14.80;9.57;;;4.90;99.90;;;4.70;82.86;101666.94;4167870;28;20443;-66
2021/04/19 04:36:09;;;;;;;12.32;9.88;;;4.90;99.90;;;4.76;81.94;101660.50;4168869;28;20033;-67
2021/04/19 04:38:10;;;;;;;12.13;9.65;;;4.90;99.90;;;4.70;82.01;101669.56;4169186;28;20084;-66
2021/04/19 04:40:12;;;;;;;12.65;10.35;;;4.90;99.90;;;4.66;82.74;101667.25;4169081;28;20037;-66
2021/04/19 04:42:16;;;;;;;13.05;10.23;;;4.80;99.90;;;4.68;82.46;101678.44;4151526;28;20024;-67
2021/04/19 04:44:30;;;;;;;13.00;10.15;;;4.80;99.90;;;4.59;83.04;101668.56;4167839;28;20104;-67
2021/04/19 04:47:03;;;;;;;13.40;10.63;;;4.80;99.90;;;4.54;83.05;101681.06;4169202;28;20151;-67
2021/04/19 04:49:20;;;;;;;13.20;10.13;;;4.80;99.90;;;4.46;82.39;101679.75;4167964;28;20025;-67
2021/04/19 04:51:25;;;;;;;14.73;10.10;;;4.70;99.90;;;4.37;83.31;101669.88;4151711;28;20030;-67
2021/04/19 04:53:35;;;;;;;14.30;9.63;;;4.70;99.90;;;4.28;84.05;101670.44;4151671;28;20489;-67
2021/04/19 04:55:37;;;;;;;13.57;9.45;;;4.70;99.90;;;4.24;84.81;101674.16;4167662;28;20028;-67
2021/04/19 04:57:42;;;;;;;15.25;9.98;;;4.60;99.90;;;4.26;85.16;101674.91;4167237;28;20029;-67
2021/04/19 04:59:43;;;;;;;;;;;4.60;99.90;;;4.17;85.08;101662.41;4168191;28;20370;-67
2021/04/19 05:01:45;;;;;;;15.70;10.68;;;4.50;99.90;;;4.18;86.58;101665.88;4167475;28;19916;-67
2021/04/19 05:03:47;;;;;;;16.27;9.98;;;4.50;99.90;;;4.39;85.29;101673.22;4165999;28;20064;-67
2021/04/19 05:05:49;;;;;;;14.55;9.95;;;4.60;99.90;;;4.54;83.24;101681.06;4167564;28;20032;-67
2021/04/19 05:07:52;;;;;;;13.52;9.82;;;4.60;99.90;;;4.42;83.00;101673.03;4168760;28;20504;-67
2021/04/19 05:09:53;;;;;;;12.77;9.70;;;4.60;99.90;;;4.42;82.72;101680.06;4167524;28;20032;-67
2021/04/19 05:11:54;;;;;;;12.05;9.90;;;4.60;99.90;;;4.25;83.47;101673.22;4166306;28;20083;-67
2021/04/19 05:14:02;;;;;;;14.85;10.20;;;4.60;99.90;;;4.15;83.61;101674.69;4151021;28;20026;-66
2021/04/19 05:16:04;;;;;;;15.48;10.15;;;4.50;99.90;;;4.23;83.69;101677.72;4167339;28;20108;-66
2021/04/19 05:18:05;;;;;;;14.93;9.82;;;4.50;99.90;;;4.25;83.38;101670.63;4167388;28;20040;-67
2021/04/19 05:20:07;;;;;;;10.32;9.23;;;4.50;99.90;;;4.25;83.80;101686.28;4168506;28;20026;-66
2021/04/19 05:22:08;;;;;;;12.30;9.40;;;4.50;99.90;;;4.18;83.75;101679.75;4167045;28;20029;-67
2021/04/19 05:24:09;;;;;;;11.77;9.98;;;4.40;99.90;;;4.00;83.98;101675.66;4168598;28;20029;-66
2021/04/19 05:26:11;;;;;;;12.57;9.60;;;4.50;99.90;;;4.11;83.48;101678.44;4167389;28;20079;-66
2021/04/19 05:28:19;;;;;;;14.75;10.50;;;4.50;99.90;;;4.24;82.94;101678.56;4167122;28;20025;-67
2021/04/19 05:30:22;;;;;;;13.63;9.52;;;4.40;99.90;;;4.19;83.11;101681.44;4167451;28;20037;-68
2021/04/19 05:32:24;;;;;;;12.88;9.50;;;4.50;99.90;;;4.13;82.99;101681.81;4167219;28;20404;-67
2021/04/19 05:34:24;;;;;;;14.25;10.15;;;4.40;99.90;;;4.18;83.16;101678.94;4166945;28;20489;-67
2021/04/19 05:36:26;;;;;;;12.27;9.63;;;4.50;99.90;;;4.11;83.88;101675.84;4167154;28;20036;-67
2021/04/19 05:38:27;;;;;;;11.20;9.07;;;4.50;99.90;;;4.16;83.51;101680.78;4150688;28;20034;-67
2021/04/19 05:40:32;;;;;;;11.02;8.32;;;4.50;99.90;;;4.22;83.97;101685.63;4167279;28;20025;-66
2021/04/19 05:42:33;;;;;;;12.88;9.55;;;4.50;99.90;;;4.24;83.75;101687.22;4167284;28;20032;-67
2021/04/19 05:44:35;;;;;;;12.70;9.70;;;4.50;99.90;;;4.25;83.60;101685.44;4167259;28;20029;-67
2021/04/19 05:46:36;;;;;;;14.07;10.30;;;4.60;99.90;;;4.34;83.68;101680.50;4167248;28;20025;-67
2021/04/19 05:48:37;;;;;;;12.63;9.85;;;4.60;99.90;;;4.41;82.63;101681.81;4167113;28;20080;-67
2021/04/19 05:50:40;;;;;;;11.85;9.40;;;4.60;99.90;;;4.46;82.83;101681.53;4168109;28;20053;-66
2021/04/19 05:52:43;;;;;;;14.55;10.20;;;4.70;99.90;;;4.45;82.17;101685.91;4150645;28;20056;-67
2021/04/19 05:54:44;;;;;;;12.93;10.68;;;4.70;99.90;;;4.39;82.54;101685.47;4150651;28;20644;-67
2021/04/19 05:57:34;;;;;;;11.75;9.27;;;4.70;99.90;;;4.42;82.44;101688.69;4167214;28;20087;-66
2021/04/19 06:00:09;;;;;;;12.15;8.75;;;4.70;99.90;;;4.51;82.72;101689.91;4172511;28;20064;-67
2021/04/19 06:02:15;;;;;;;10.10;8.52;;;4.80;99.90;;;4.54;83.35;101697.56;4167836;28;20026;-67
2021/04/19 06:04:51;;;;;;;11.95;9.88;;;4.80;99.90;;;4.51;83.67;101694.31;4166942;28;20029;-67
2021/04/19 06:07:08;;;;;;;16.45;10.48;;;4.90;99.90;;;4.52;83.96;101689.00;4159774;28;20045;-67
2021/04/19 06:09:20;;;;;;;15.00;10.63;;;4.90;99.90;;;4.61;83.24;101690.19;4166090;28;20029;-67
2021/04/19 06:11:35;;;;;;;12.30;9.25;;;4.90;99.90;;;4.69;83.71;101693.19;4164351;28;20452;-67
2021/04/19 06:13:38;;;;;;;11.60;8.35;;;5.00;99.90;;;4.71;84.44;101699.16;4170216;28;20060;-67
2021/04/19 06:15:39;;;;;;;13.35;10.15;;;5.00;99.90;;;4.73;84.16;101692.03;4170218;28;20462;-67
2021/04/19 06:17:47;;;;;;;12.75;9.32;;;5.10;99.90;;;4.78;84.59;101701.28;4170119;28;20555;-67
2021/04/19 06:19:49;;;;;;;12.13;9.18;;;5.10;99.90;;;4.83;85.08;101701.00;4170128;28;20029;-67
2021/04/19 06:21:51;;;;;;;13.40;9.60;;;5.20;99.90;;;4.87;84.98;101698.09;4170986;28;20021;-67
2021/04/19 06:23:52;;;;;;;12.32;9.10;;;5.20;99.90;;;4.81;85.35;101680.19;4174694;28;20417;-67
2021/04/19 06:25:54;;;;;;;14.48;9.70;;;5.30;99.90;;;4.96;84.68;101697.50;4176448;28;20088;-67
2021/04/19 06:28:04;;;;;;;12.48;8.98;;;5.30;99.90;;;5.01;84.61;101700.69;4169890;28;20092;-67
2021/04/19 06:30:17;;;;;;;12.05;9.32;;;5.50;99.90;;;5.20;84.76;101708.19;4171102;28;20055;-66
2021/04/19 06:32:23;;;;;;;13.05;9.05;;;5.50;99.90;;;5.09;85.12;101689.75;4171066;28;20397;-66
2021/04/19 06:34:23;;;;;;;12.07;8.80;;;5.50;99.90;;;5.30;85.10;101697.97;4153290;28;20050;-66
2021/04/19 06:36:24;;;;;;;12.55;8.48;;;5.60;99.90;;;5.37;84.32;101694.88;4170668;28;20045;-66
2021/04/19 06:38:25;;;;;;;11.88;9.65;;;5.70;99.90;;;5.45;84.39;101691.75;4153400;28;20536;-67
2021/04/19 06:40:26;;;;;;;10.93;8.20;;;5.90;99.90;;;5.53;84.04;101692.94;4169637;28;20057;-67
2021/04/19 06:42:28;;;;;;;10.70;8.65;;;6.00;99.90;;;5.66;84.30;101689.50;4169560;28;20030;-67
2021/04/19 06:44:30;;;;;;;11.90;8.95;;;6.00;99.90;;;5.67;83.84;101692.03;4152840;28;20034;-66
2021/04/19 06:46:34;;;;;;;13.55;9.57;;;6.10;99.90;;;5.73;83.07;101691.63;4170660;28;20025;-67
2021/04/19 06:48:35;;;;;;;11.82;7.63;;;6.20;99.90;;;5.80;83.44;101694.66;4150931;28;20033;-68
2021/04/19 06:50:39;;;;;;;11.85;7.88;;;6.20;99.90;;;5.81;83.38;101678.03;4150587;28;20048;-68
2021/04/19 06:52:47;;;;;;;14.83;8.30;;;6.30;99.90;;;6.01;82.25;101685.41;4168277;28;20033;-67
2021/04/19 06:54:47;;;;;;;12.82;7.88;;;6.40;99.90;;;6.08;82.45;101702.38;4152128;28;20116;-67
2021/04/19 06:56:50;;;;;;;11.73;8.52;;;6.50;99.90;;;6.15;82.22;101687.94;4168991;28;20025;-67
2021/04/19 06:58:54;;;;;;;10.63;7.70;;;6.50;99.90;;;6.18;82.21;101700.84;4168787;28;20654;-67
2021/04/19 07:00:57;;;;;;;10.93;8.50;;;6.60;99.90;;;6.32;81.98;101694.63;4162223;28;20081;-67
2021/04/19 07:03:00;;;;;;;12.75;7.95;;;6.70;99.90;;;6.40;81.90;101680.06;4152395;28;20121;-67
2021/04/19 07:05:03;;;;;;;15.38;7.78;;;6.70;99.90;;;6.47;82.17;101685.72;4165497;28;20033;-68
2021/04/19 07:07:04;;;;;;;11.40;8.38;;;6.80;99.90;;;6.60;80.89;101689.16;4176679;28;20031;-68
2021/04/19 07:09:23;;;;;;;13.98;8.23;;;6.90;99.90;;;6.69;80.91;101691.97;4168172;28;20111;-68
2021/04/19 07:11:27;;;;;;;12.40;7.93;;;7.00;99.90;;;6.88;79.99;101693.28;4158040;28;20115;-68
2021/04/19 07:13:30;;;;;;;11.98;7.55;;;7.10;99.90;;;6.86;79.69;101692.56;4146112;28;20038;-68
2021/04/19 07:15:31;;;;;;;11.80;7.22;;;7.20;99.90;;;6.85;79.63;101685.63;4159950;28;20417;-67
2021/04/19 07:17:32;;;;;;;8.98;7.30;;;7.30;99.90;;;7.00;79.05;101687.16;4155855;28;20033;-68
2021/04/19 07:19:34;;;;;;;10.82;7.00;;;7.40;99.90;;;7.07;78.44;101691.03;4158688;28;20021;-68
2021/04/19 07:21:35;;;;;;;9.27;7.53;;;7.50;99.90;;;7.00;76.74;101681.91;4157219;28;20151;-67
2021/04/19 07:23:37;;;;;;;11.43;7.13;;;7.50;99.90;;;7.11;77.04;101690.69;4157267;28;21057;-67
2021/04/19 07:25:38;;;;;;;13.05;7.10;;;7.60;99.90;;;7.15;77.27;101686.06;4158414;28;20053;-66
2021/04/19 07:27:40;;;;;;;11.60;7.50;;;7.60;99.90;;;7.24;75.90;101682.78;4160362;28;20060;-66
2021/04/19 07:29:42;;;;;;;9.57;6.78;;;7.70;99.90;;;7.20;76.24;101686.56;4142524;28;20026;-67
2021/04/19 07:31:54;;;;;;;8.82;7.00;;;7.70;99.90;;;7.38;77.22;101684.41;4168172;28;20025;-67
2021/04/19 07:33:55;;;;;;;13.75;8.52;;;7.80;99.90;;;7.50;77.04;101684.31;4169463;28;20139;-66
2021/04/19 07:35:56;;;;;;;9.27;7.40;;;7.90;99.90;;;7.58;76.42;101692.50;4152198;28;20022;-66
2021/04/19 07:38:04;;;;;;;11.82;7.90;;;8.00;99.90;;;7.74;75.25;101693.00;4167697;28;20030;-66
2021/04/19 07:40:07;;;;;;;69.28;61.72;;;8.10;99.90;;;7.81;74.94;101685.50;4168433;28;20440;-69
2021/04/19 07:42:11;;;;;;;12.93;8.55;;;8.20;99.90;;;7.84;73.82;101663.41;4161103;28;20026;-69
2021/04/19 07:44:31;;;;;;;10.57;6.90;;;8.30;99.90;;;7.84;74.74;101663.41;4152008;28;20041;-69
2021/04/19 07:46:32;;;;;;;9.23;7.00;;;8.40;99.90;;;7.97;75.61;101667.66;4169035;28;20032;-69
2021/04/19 07:48:40;;;;;;;10.25;8.13;;;8.50;99.90;;;8.16;73.92;101678.41;4167769;28;20033;-68
2021/04/19 07:50:41;;;;;;;7.47;6.68;;;8.60;99.90;;;8.07;75.11;101670.38;4181221;28;20123;-69
2021/04/19 07:53:04;;;;;;;12.15;7.80;;;8.70;99.90;;;8.26;73.24;101670.66;4168627;28;20447;-69
2021/04/19 07:55:24;;;;;;;11.25;6.85;;;8.80;99.90;;;8.33;73.43;101670.09;4162633;28;20028;-68
2021/04/19 07:57:25;;;;;;;13.10;7.50;;;8.90;99.90;;;8.42;73.25;101676.44;4168455;28;20065;-69
2021/04/19 07:59:32;;;;;;;9.05;6.72;;;9.10;99.90;;;8.48;74.28;101680.38;4168372;28;20030;-69
2021/04/19 08:02:00;;;;;;;11.75;7.95;;;9.00;99.90;;;8.57;73.45;101669.16;4151936;28;20038;-69
2021/04/19 08:04:05;;;;;;;8.60;6.80;;;9.20;99.90;;;8.76;73.62;101674.63;4155551;28;20022;-68
2021/04/19 08:06:21;;;;;;;9.25;6.88;;;9.30;99.90;;;8.80;73.80;101663.75;4159645;28;20029;-68
2021/04/19 08:08:31;;;;;;;10.80;7.13;;;9.40;99.90;;;8.80;73.93;101655.84;4164955;28;20112;-69
2021/04/19 08:10:34;;;;;;;9.50;7.90;;;9.50;99.90;;;8.85;72.90;101653.69;4156379;28;20492;-69
2021/04/19 08:12:43;;;;;;;13.30;8.13;;;9.60;99.90;;;8.84;73.70;101667.78;4169473;28;20040;-69
2021/04/19 08:14:52;;;;;;;10.25;7.43;;;9.70;99.90;;;9.07;74.18;101673.00;4167741;28;20417;-68
2021/04/19 08:17:09;;;;;;;10.52;8.05;;;9.70;99.90;;;9.30;74.10;101669.34;4155834;28;20111;-68
2021/04/19 08:19:10;;;;;;;10.65;7.35;;;9.90;99.90;;;9.20;73.46;101655.28;4160995;28;20037;-69
2021/04/19 08:21:12;;;;;;;8.52;6.95;;;10.00;99.90;;;9.39;73.48;101663.34;4147614;28;20652;-69
2021/04/19 08:23:14;;;;;;;9.50;7.25;;;10.10;99.90;;;9.26;73.33;101655.59;4167060;28;20028;-69
2021/04/19 08:25:23;;;;;;;11.40;7.53;;;10.10;99.90;;;9.41;73.74;101664.03;4164280;28;20014;-69
2021/04/19 08:27:25;;;;;;;11.63;8.13;;;10.20;99.90;;;9.38;72.63;101667.75;4175163;28;20476;-68
2021/04/19 08:29:45;;;;;;;13.27;8.32;;;10.20;99.90;;;9.54;73.14;101663.88;4169013;28;20022;-69
2021/04/19 08:31:46;;;;;;;10.75;7.63;;;10.30;99.90;;;9.49;72.81;101647.63;4169214;28;20443;-68
2021/04/19 08:33:47;;;;;;;9.80;8.48;;;10.40;99.90;;;9.60;73.08;101656.28;4176823;28;20048;-68
2021/04/19 08:35:50;;;;;;;8.93;7.72;;;10.50;99.90;;;9.51;73.12;101657.06;4172315;28;20068;-68
2021/04/19 08:37:53;;;;;;;14.35;8.20;;;10.40;99.90;;;9.57;72.90;101648.66;4167510;28;20033;-69
2021/04/19 08:39:56;;;;;;;12.18;8.45;;;10.50;99.90;;;9.77;72.24;101649.59;4152064;28;21138;-70
2021/04/19 08:42:00;;;;;;;12.52;8.50;;;10.50;99.90;;;9.88;71.72;101647.75;4157357;28;20026;-70
2021/04/19 08:44:02;;;;;;;10.57;8.20;;;10.70;99.90;;;9.95;71.28;101648.91;4157497;28;20618;-69
2021/04/19 08:46:04;;;;;;;14.57;9.38;;;10.80;99.90;;;10.08;72.62;101639.94;4157773;28;20078;-70